Time;durP1;ratioP1;P1;durP2;ratioP2;P2;SDS_P1;SDS_P2;PMS_P1;PMS_P2;Temp;Humidity;BMP_temperature;BMP_pressure;BME280_temperature;BME280_humidity;BME280_pressure;Samples;Min_cycle;Max_cycle;Signal;HPM_P1;HPM_P2
2021/04/23 00:00:38;;;;;;;8.13;3.47;;;;;;;6.69;44.49;97282.72;5008028;28;20045;-61
2021/04/23 00:03:20;;;;;;;10.07;3.80;;;;;;;6.62;44.39;97282.41;5016547;28;20038;-61
2021/04/23 00:05:48;;;;;;;8.95;3.30;;;;;;;6.56;45.25;97280.22;5021636;28;20054;-63
2021/04/23 00:08:15;;;;;;;11.65;3.67;;;;;;;6.52;45.33;97277.34;5015494;28;20079;-63
2021/04/23 00:10:40;;;;;;;11.25;3.83;;;;;;;6.69;44.58;97282.72;5020572;28;20096;-62
2021/04/23 00:13:06;;;;;;;9.75;3.95;;;;;;;6.61;44.58;97280.84;5013451;28;20042;-61
2021/04/23 00:15:31;;;;;;;10.38;4.95;;;;;;;6.51;45.21;97275.75;5018547;28;20128;-60
2021/04/23 00:17:57;;;;;;;12.88;3.83;;;;;;;6.56;45.01;97282.94;5019996;28;20431;-62
2021/04/23 00:20:27;;;;;;;9.90;3.85;;;;;;;6.51;44.91;97279.25;5015106;28;20816;-63
2021/04/23 00:23:00;;;;;;;14.52;4.05;;;;;;;6.52;45.17;97277.34;5019692;28;20042;-63
2021/04/23 00:25:27;;;;;;;11.43;3.25;;;;;;;6.45;44.85;97279.78;5015465;28;20099;-62
2021/04/23 00:27:58;;;;;;;7.03;3.42;;;;;;;6.45;44.84;97275.13;5020058;28;20048;-60
2021/04/23 00:30:31;;;;;;;12.65;3.20;;;;;;;6.43;45.14;97284.75;5011563;28;20354;-61
2021/04/23 00:32:57;;;;;;;12.48;4.97;;;;;;;6.48;44.91;97279.94;5019495;28;20448;-63
2021/04/23 00:35:27;;;;;;;7.55;3.90;;;;;;;6.55;44.58;97273.97;5017268;28;20049;-63
2021/04/23 00:37:52;;;;;;;;;;;;;;;6.51;44.89;97281.19;5024452;28;20038;-63
2021/04/23 00:40:23;;;;;;;14.63;4.68;;;;;;;6.50;45.13;97274.16;5019076;28;19920;-63
2021/04/23 00:42:49;;;;;;;9.75;4.13;;;;;;;6.45;45.12;97275.13;5024560;28;20049;-62
2021/04/23 00:45:18;;;;;;;13.45;3.90;;;;;;;6.43;45.14;97265.72;5019483;28;20049;-62
2021/04/23 00:47:45;;;;;;;11.88;4.15;;;;;;;6.36;45.12;97273.56;5029982;28;20045;-61
2021/04/23 00:50:12;;;;;;;9.32;3.80;;;;;;;6.46;44.36;97278.66;5028496;28;20128;-61
2021/04/23 00:52:38;;;;;;;10.75;4.30;;;;;;;6.43;44.48;97273.88;5024961;28;20133;-61
2021/04/23 00:55:06;;;;;;;15.05;4.32;;;;;;;6.41;44.73;97276.09;5020139;28;20144;-61
2021/04/23 00:57:31;;;;;;;11.43;3.55;;;;;;;6.42;44.71;97270.34;5023888;28;20057;-60
2021/04/23 00:59:57;;;;;;;12.18;3.35;;;;;;;6.45;44.43;97277.84;5023316;28;20034;-62
2021/04/23 01:02:22;;;;;;;8.82;3.13;;;;;;;6.53;44.22;97276.22;5017951;28;20643;-62
2021/04/23 01:04:49;;;;;;;19.48;4.05;;;;;;;6.64;43.12;97276.66;5023675;28;20074;-61
2021/04/23 01:07:15;;;;;;;9.95;4.05;;;;;;;6.50;44.34;97277.69;5018721;28;20081;-62
2021/04/23 01:09:41;;;;;;;9.57;3.65;;;;;;;6.46;43.85;97281.38;5020707;28;20053;-62
2021/04/23 01:12:07;;;;;;;14.43;3.92;;;;;;;6.38;43.91;97274.84;5017845;28;20049;-61
2021/04/23 01:14:32;;;;;;;8.80;3.75;;;;;;;6.44;44.34;97272.72;5021472;28;20156;-60
2021/04/23 01:16:58;;;;;;;8.02;3.55;;;;;;;6.43;44.11;97273.88;5009868;28;20065;-61
2021/04/23 01:19:26;;;;;;;9.10;3.35;;;;;;;6.35;45.05;97277.41;5000375;28;20502;-61
2021/04/23 01:21:53;;;;;;;10.05;3.47;;;;;;;6.31;45.03;97274.53;5026812;28;20049;-62
2021/04/23 01:24:19;;;;;;;13.00;3.92;;;;;;;6.37;44.38;97280.59;5020988;28;20102;-62
2021/04/23 01:26:48;;;;;;;14.00;3.70;;;;;;;6.44;44.13;97270.78;5006495;28;20107;-59
2021/04/23 01:29:15;;;;;;;6.50;3.60;;;;;;;6.37;44.50;97284.09;5018143;28;20056;-62
2021/04/23 01:31:44;;;;;;;13.00;3.90;;;;;;;6.34;45.11;97287.50;5022919;28;20045;-62
2021/04/23 01:34:22;;;;;;;11.13;3.75;;;;;;;6.31;44.48;97285.41;5009446;28;20574;-62
2021/04/23 01:36:50;;;;;;;7.72;3.15;;;;;;;6.28;45.34;97284.16;5014795;28;20048;-60
2021/04/23 01:39:26;;;;;;;9.98;3.65;;;;;;;6.17;46.42;97279.38;5010043;28;20061;-62
2021/04/23 01:41:54;;;;;;;9.18;3.33;;;;;;;6.07;46.41;97284.03;5012914;28;20042;-62
2021/04/23 01:44:20;;;;;;;9.18;3.63;;;;;;;6.00;46.84;97291.88;5006571;28;20053;-61
2021/04/23 01:46:46;;;;;;;13.10;4.22;;;;;;;5.94;47.34;97288.50;5018098;28;20042;-62
2021/04/23 01:49:15;;;;;;;8.18;3.30;;;;;;;5.88;48.56;97284.34;5011349;28;20554;-61
2021/04/23 01:51:44;;;;;;;10.27;3.65;;;;;;;5.86;48.37;97292.00;5022851;28;20053;-60
2021/04/23 01:54:11;;;;;;;7.53;3.65;;;;;;;5.60;49.56;97286.59;5017612;28;20042;-62
2021/04/23 01:56:37;;;;;;;9.02;3.50;;;;;;;5.40;50.28;97292.66;5022848;28;20073;-62
2021/04/23 01:59:04;;;;;;;8.43;3.88;;;;;;;5.12;51.34;97295.66;5015178;28;20065;-63
2021/04/23 02:01:30;;;;;;;11.55;4.00;;;;;;;5.03;52.06;97298.34;5024247;28;20041;-62
2021/04/23 02:03:56;;;;;;;8.07;3.17;;;;;;;4.89;52.49;97301.16;5023322;28;20064;-62
2021/04/23 02:06:22;;;;;;;9.77;3.58;;;;;;;4.71;52.69;97308.44;5017718;28;20540;-62
2021/04/23 02:08:47;;;;;;;9.15;3.75;;;;;;;4.64;53.52;97296.47;5021166;28;20049;-62
2021/04/23 02:11:16;;;;;;;7.93;3.33;;;;;;;4.53;54.50;97295.94;5017005;28;20192;-62
2021/04/23 02:13:44;;;;;;;16.27;4.30;;;;;;;4.58;55.09;97293.09;5032939;28;20050;-64
2021/04/23 02:16:12;;;;;;;12.45;4.00;;;;;;;4.67;54.76;97302.06;5031928;28;20226;-62
2021/04/23 02:18:38;;;;;;;10.57;3.53;;;;;;;4.60;54.60;97299.78;5039475;28;20623;-61
2021/04/23 02:21:06;;;;;;;11.35;4.20;;;;;;;4.56;55.89;97306.16;5017611;28;20095;-59
2021/04/23 02:23:31;;;;;;;5.72;3.25;;;;;;;4.47;54.63;97303.41;5012468;28;20649;-63
2021/04/23 02:25:58;;;;;;;10.18;3.65;;;;;;;4.34;55.80;97304.28;5016478;28;20041;-64
2021/04/23 02:28:24;;;;;;;7.15;3.53;;;;;;;4.21;55.72;97309.50;5007795;28;20314;-62
2021/04/23 02:30:59;;;;;;;8.38;3.80;;;;;;;4.17;56.68;97300.38;5013384;28;20404;-63
2021/04/23 02:33:25;;;;;;;7.68;3.45;;;;;;;4.08;55.57;97304.16;5017612;28;20040;-62
2021/04/23 02:35:54;;;;;;;6.70;3.65;;;;;;;4.00;56.65;97303.00;5022042;28;20505;-62
2021/04/23 02:38:20;;;;;;;8.20;3.80;;;;;;;3.96;56.00;97297.38;5011901;28;20073;-61
2021/04/23 02:40:46;;;;;;;9.05;4.10;;;;;;;3.98;54.91;97302.47;5011280;28;20428;-62
2021/04/23 02:43:15;;;;;;;11.38;3.88;;;;;;;4.10;52.89;97300.00;5007352;28;20401;-61
2021/04/23 02:45:42;;;;;;;7.75;3.72;;;;;;;4.19;52.72;97305.47;5012011;28;20451;-63
2021/04/23 02:48:09;;;;;;;8.00;3.58;;;;;;;4.44;51.03;97306.72;5015692;28;20369;-61
2021/04/23 02:50:37;;;;;;;9.60;3.90;;;;;;;4.47;52.32;97305.31;5021668;28;20046;-60
2021/04/23 02:53:06;;;;;;;14.65;3.90;;;;;;;4.35;53.04;97300.47;5012665;28;20046;-60
2021/04/23 02:55:32;;;;;;;8.57;3.53;;;;;;;5.11;47.30;97297.56;5020392;28;20047;-61
2021/04/23 02:58:03;;;;;;;10.07;4.38;;;;;;;4.96;49.28;97306.94;5016230;28;20128;-61
2021/04/23 03:00:31;;;;;;;7.38;3.70;;;;;;;4.68;52.13;97310.97;5014505;28;20045;-61
2021/04/23 03:02:57;;;;;;;10.07;4.28;;;;;;;5.03;47.93;97308.41;5015282;28;20587;-62
2021/04/23 03:05:23;;;;;;;10.55;3.83;;;;;;;4.91;48.50;97311.72;5008372;28;20438;-60
2021/04/23 03:07:51;;;;;;;11.77;3.70;;;;;;;4.79;51.63;97310.41;5020699;28;20087;-60
2021/04/23 03:10:19;;;;;;;12.02;4.50;;;;;;;4.82;49.12;97314.41;5008475;28;20492;-62
2021/04/23 03:12:45;;;;;;;9.38;3.70;;;;;;;4.73;51.89;97319.00;5003754;28;20081;-61
2021/04/23 03:15:11;;;;;;;8.57;3.58;;;;;;;4.78;48.83;97310.72;5005032;28;20069;-60
2021/04/23 03:17:37;;;;;;;13.25;3.65;;;;;;;4.48;53.45;97315.84;5017561;28;20043;-60
2021/04/23 03:20:11;;;;;;;14.93;3.53;;;;;;;4.32;53.96;97320.06;5016995;28;20033;-61
2021/04/23 03:22:36;;;;;;;8.43;3.97;;;;;;;4.28;53.48;97325.31;5016350;28;20141;-61
2021/04/23 03:25:03;;;;;;;10.23;3.75;;;;;;;4.14;54.77;97327.28;5018286;28;20128;-60
2021/04/23 03:27:29;;;;;;;17.88;4.30;;;;;;;4.14;52.43;97322.69;5034100;28;20073;-60
2021/04/23 03:29:55;;;;;;;13.43;3.75;;;;;;;4.24;51.44;97318.13;5016635;28;20049;-63
2021/04/23 03:32:20;;;;;;;15.45;5.53;;;;;;;4.46;50.35;97318.06;5016353;28;20428;-61
2021/04/23 03:34:45;;;;;;;10.02;3.60;;;;;;;4.89;47.90;97322.88;5024752;28;20107;-62
2021/04/23 03:37:11;;;;;;;8.82;3.28;;;;;;;4.72;48.95;97318.19;5020136;28;20435;-64
2021/04/23 03:39:36;;;;;;;11.98;4.10;;;;;;;5.06;47.01;97324.03;5018408;28;20048;-61
2021/04/23 03:42:02;;;;;;;9.73;3.80;;;;;;;5.05;47.59;97317.81;5011182;28;20084;-61
2021/04/23 03:44:27;;;;;;;12.38;3.85;;;;;;;5.20;46.95;97315.78;5001255;28;20042;-62
2021/04/23 03:46:53;;;;;;;9.27;3.13;;;;;;;5.18;46.78;97321.53;5015457;28;20431;-62
2021/04/23 03:49:19;;;;;;;12.25;3.90;;;;;;;5.16;46.50;97326.47;5009905;28;20675;-62
2021/04/23 03:51:44;;;;;;;15.18;4.72;;;;;;;5.06;47.05;97329.47;5018906;28;20055;-61
2021/04/23 03:54:10;;;;;;;10.60;3.58;;;;;;;4.97;47.79;97332.97;5014917;28;20038;-62
2021/04/23 03:56:35;;;;;;;14.73;4.03;;;;;;;4.78;51.08;97337.84;5020432;28;20076;-63
2021/04/23 03:59:00;;;;;;;11.68;3.60;;;;;;;4.12;53.96;97338.44;5014153;28;20069;-60
2021/04/23 04:01:26;;;;;;;8.77;3.47;;;;;;;3.90;54.15;97338.47;5011935;28;20037;-62
2021/04/23 04:03:55;;;;;;;13.02;3.85;;;;;;;4.04;51.99;97332.97;5016359;28;20470;-63
2021/04/23 04:06:21;;;;;;;10.50;3.60;;;;;;;4.04;50.65;97335.69;5006618;28;20400;-62
2021/04/23 04:08:47;;;;;;;8.07;3.22;;;;;;;4.08;51.22;97342.88;5021399;28;20128;-63
2021/04/23 04:11:12;;;;;;;14.70;3.90;;;;;;;4.19;50.35;97346.94;5018579;28;20492;-61
2021/04/23 04:13:38;;;;;;;15.18;3.58;;;;;;;4.11;53.38;97355.03;5024938;28;20042;-64
2021/04/23 04:16:04;;;;;;;11.98;3.30;;;;;;;4.02;53.52;97352.25;5024408;28;20092;-61
2021/04/23 04:18:30;;;;;;;11.90;3.97;;;;;;;3.73;55.22;97355.38;5008295;28;20484;-63
2021/04/23 04:20:55;;;;;;;11.75;3.60;;;;;;;3.66;54.78;97363.13;5012020;28;20064;-61
2021/04/23 04:23:22;;;;;;;6.93;4.28;;;;;;;3.61;54.94;97364.03;5011252;28;20071;-61
2021/04/23 04:25:55;;;;;;;8.73;3.33;;;;;;;3.79;53.03;97368.50;5024139;28;20388;-61
2021/04/23 04:28:21;;;;;;;10.73;4.38;;;;;;;3.73;54.21;97363.53;4999837;28;20046;-62
2021/04/23 04:30:47;;;;;;;14.27;3.65;;;;;;;3.84;52.84;97370.31;5024883;28;20053;-61
2021/04/23 04:33:13;;;;;;;8.77;3.53;;;;;;;3.85;52.04;97371.09;5020382;28;20094;-61
2021/04/23 04:35:40;;;;;;;14.20;3.70;;;;;;;3.78;53.12;97377.75;5017417;28;20435;-61
2021/04/23 04:38:07;;;;;;;12.77;4.55;;;;;;;3.87;53.27;97379.72;5011390;28;20124;-61
2021/04/23 04:40:34;;;;;;;13.40;3.85;;;;;;;3.92;52.45;97382.31;5024826;28;20069;-62
2021/04/23 04:43:00;;;;;;;10.88;3.95;;;;;;;3.94;53.31;97382.81;5023952;28;20042;-62
2021/04/23 04:45:27;;;;;;;10.30;3.53;;;;;;;3.97;53.76;97385.69;5018062;28;20132;-63
2021/04/23 04:47:53;;;;;;;9.02;3.22;;;;;;;4.21;52.20;97393.56;5030439;28;20060;-62
2021/04/23 04:50:28;;;;;;;13.02;3.45;;;;;;;4.25;52.17;97392.91;5038969;28;20033;-62
2021/04/23 04:53:05;;;;;;;10.93;3.25;;;;;;;4.15;54.08;97399.41;5024556;28;20068;-63
2021/04/23 04:55:34;;;;;;;12.75;4.05;;;;;;;4.29;53.08;97402.84;5019395;28;20483;-61
2021/04/23 04:58:01;;;;;;;14.13;4.00;;;;;;;4.45;52.94;97399.75;5024699;28;20513;-62
2021/04/23 05:00:27;;;;;;;13.18;5.40;;;;;;;4.52;53.47;97400.94;5017020;28;20052;-63
2021/04/23 05:02:54;;;;;;;10.88;4.10;;;;;;;4.61;55.58;97403.72;5015521;28;20111;-61
2021/04/23 05:05:20;;;;;;;12.80;4.00;;;;;;;4.93;50.27;97409.91;5016669;28;20038;-63
2021/04/23 05:07:45;;;;;;;10.82;4.25;;;;;;;5.36;48.91;97417.44;5014450;28;20042;-61
2021/04/23 05:10:12;;;;;;;10.45;3.97;;;;;;;6.34;46.73;97412.66;5010609;28;20045;-63
2021/04/23 05:12:37;;;;;;;12.38;3.67;;;;;;;7.40;45.76;97409.31;5023035;28;20041;-62
2021/04/23 05:15:05;;;;;;;9.38;3.80;;;;;;;8.88;43.28;97415.56;5021201;28;20037;-62
2021/04/23 05:17:30;;;;;;;13.43;3.45;;;;;;;10.21;40.32;97418.94;5023355;28;20397;-62
2021/04/23 05:19:56;;;;;;;9.90;3.22;;;;;;;11.74;36.45;97410.47;5017984;28;20041;-63
2021/04/23 05:22:21;;;;;;;7.53;3.20;;;;;;;13.00;34.28;97408.34;5013449;28;20272;-62
2021/04/23 05:24:47;;;;;;;11.05;3.35;;;;;;;13.99;31.32;97417.03;5017151;28;20061;-63
2021/04/23 05:27:12;;;;;;;6.55;2.80;;;;;;;14.90;29.70;97407.56;5010950;28;20052;-63
2021/04/23 05:29:38;;;;;;;9.15;3.10;;;;;;;15.35;26.76;97412.34;5020508;28;20120;-65
2021/04/23 05:32:05;;;;;;;13.50;3.90;;;;;;;15.38;27.48;97417.91;5017900;28;20140;-62
2021/04/23 05:34:30;;;;;;;11.32;3.13;;;;;;;16.27;27.12;97413.41;5020201;28;20041;-62
2021/04/23 05:36:56;;;;;;;14.23;4.50;;;;;;;14.60;27.73;97421.41;5015826;28;20095;-62
2021/04/23 05:39:21;;;;;;;11.75;3.47;;;;;;;15.15;30.17;97422.81;5018066;28;20579;-63
2021/04/23 05:41:47;;;;;;;9.65;3.50;;;;;;;12.90;33.56;97430.16;5022839;28;20436;-61
2021/04/23 05:44:12;;;;;;;9.02;3.15;;;;;;;15.53;30.97;97437.34;5019868;28;20374;-63
2021/04/23 05:46:38;;;;;;;8.15;2.92;;;;;;;14.39;28.58;97434.91;5014944;28;20129;-62
2021/04/23 05:49:05;;;;;;;9.10;3.22;;;;;;;15.22;29.91;97436.66;5012500;28;20128;-62
2021/04/23 05:51:30;;;;;;;13.05;5.88;;;;;;;13.68;30.84;97440.97;5019651;28;20057;-63
2021/04/23 05:53:56;;;;;;;8.43;3.20;;;;;;;14.60;30.85;97442.69;5014796;28;20046;-62
2021/04/23 05:56:22;;;;;;;9.45;3.25;;;;;;;14.25;30.95;97439.06;5006624;28;20151;-63
2021/04/23 05:58:47;;;;;;;10.10;3.17;;;;;;;15.56;30.92;97439.34;5016384;28;20046;-63
2021/04/23 06:01:13;;;;;;;7.35;3.03;;;;;;;17.32;28.43;97435.53;5012407;28;20103;-63
2021/04/23 06:03:38;;;;;;;9.32;3.60;;;;;;;15.75;25.64;97436.34;5022123;28;20034;-63
2021/04/23 06:06:04;;;;;;;10.20;3.45;;;;;;;15.16;28.76;97438.16;5018198;28;20037;-62
2021/04/23 06:08:29;;;;;;;8.35;3.28;;;;;;;13.98;28.30;97449.28;5020005;28;20167;-62
2021/04/23 06:10:55;;;;;;;10.75;3.55;;;;;;;14.07;29.35;97455.31;5015203;28;20038;-62
2021/04/23 06:13:20;;;;;;;11.70;4.18;;;;;;;14.34;30.56;97450.59;5015563;28;20388;-62
2021/04/23 06:15:46;;;;;;;10.48;4.30;;;;;;;14.70;32.04;97447.53;5009832;28;20038;-62
2021/04/23 06:18:12;;;;;;;13.73;5.35;;;;;;;16.04;29.75;97453.13;5011024;28;20045;-62
2021/04/23 06:20:40;;;;;;;9.48;4.03;;;;;;;18.59;25.20;97445.31;5025162;28;20061;-61
2021/04/23 06:23:06;;;;;;;7.60;3.60;;;;;;;15.41;28.25;97450.25;5015882;28;20041;-62
2021/04/23 06:25:32;;;;;;;9.40;4.25;;;;;;;17.62;25.60;97450.97;5013733;28;20050;-62
2021/04/23 06:27:58;;;;;;;8.15;4.07;;;;;;;15.43;28.17;97445.16;5021923;28;20585;-62
2021/04/23 06:30:28;;;;;;;7.35;3.53;;;;;;;18.44;24.57;97444.59;5010329;28;20115;-62
2021/04/23 06:32:55;;;;;;;8.57;3.30;;;;;;;20.62;22.74;97444.28;5014076;28;20400;-63
2021/04/23 06:35:22;;;;;;;7.30;3.55;;;;;;;20.39;21.71;97446.91;5016736;28;20052;-63
2021/04/23 06:37:48;;;;;;;9.73;3.88;;;;;;;16.05;27.56;97447.22;5018968;28;20049;-62
2021/04/23 06:40:16;;;;;;;13.77;4.00;;;;;;;16.67;27.37;97448.34;5016399;28;20171;-63
2021/04/23 06:42:41;;;;;;;9.07;4.20;;;;;;;15.59;30.03;97464.22;5021828;28;20076;-62
2021/04/23 06:45:11;;;;;;;11.55;4.03;;;;;;;14.83;28.50;97462.66;5016118;28;20132;-63
2021/04/23 06:47:37;;;;;;;;;;;;;;;15.45;29.13;97461.34;5014779;28;20041;-62
2021/04/23 06:50:05;;;;;;;9.02;4.10;;;;;;;12.49;31.35;97459.97;4999589;28;19922;-62
2021/04/23 06:52:31;;;;;;;11.82;3.60;;;;;;;12.59;32.51;97465.69;5015496;28;20048;-61
2021/04/23 06:54:57;;;;;;;13.15;4.45;;;;;;;11.66;33.99;97469.06;5029850;28;20045;-62
2021/04/23 06:57:22;;;;;;;17.77;5.47;;;;;;;12.45;33.28;97475.59;5027976;28;20072;-64
2021/04/23 06:59:47;;;;;;;14.05;5.20;;;;;;;11.94;34.08;97473.66;5026555;28;20439;-62
2021/04/23 07:02:13;;;;;;;14.30;4.25;;;;;;;12.46;34.27;97464.25;5012683;28;20087;-63
2021/04/23 07:04:38;;;;;;;9.88;4.53;;;;;;;12.53;33.28;97472.63;5011213;28;20049;-60
2021/04/23 07:07:04;;;;;;;11.32;4.28;;;;;;;13.92;32.04;97468.09;5017046;28;20115;-61
2021/04/23 07:09:29;;;;;;;11.90;4.18;;;;;;;13.62;32.29;97469.97;5015245;28;20045;-61
2021/04/23 07:11:56;;;;;;;10.75;4.05;;;;;;;13.53;33.76;97473.75;5016552;28;20268;-62
2021/04/23 07:14:21;;;;;;;11.38;4.45;;;;;;;15.00;28.88;97477.84;5015927;28;20072;-63
2021/04/23 07:16:46;;;;;;;11.50;4.30;;;;;;;14.27;29.99;97480.00;5021784;28;20033;-63
2021/04/23 07:19:12;;;;;;;11.75;4.03;;;;;;;14.96;29.27;97478.94;5015737;28;20053;-63
2021/04/23 07:21:37;;;;;;;10.57;4.43;;;;;;;16.62;27.36;97473.63;5022906;28;20065;-64
2021/04/23 07:24:03;;;;;;;10.73;4.97;;;;;;;15.59;28.48;97477.22;5019841;28;20116;-63
2021/04/23 07:26:28;;;;;;;14.43;5.45;;;;;;;15.29;29.27;97475.38;5012760;28;20191;-61
2021/04/23 07:28:55;;;;;;;11.50;4.95;;;;;;;14.25;31.07;97480.38;5020932;28;20049;-62
2021/04/23 07:31:21;;;;;;;12.20;5.30;;;;;;;17.07;26.92;97481.72;5014604;28;20504;-63
2021/04/23 07:33:46;;;;;;;10.57;4.68;;;;;;;15.81;29.38;97487.31;5020737;28;20041;-62
2021/04/23 07:36:12;;;;;;;13.02;5.20;;;;;;;13.48;33.06;97481.53;5015604;28;20038;-62
2021/04/23 07:38:37;;;;;;;14.43;5.53;;;;;;;12.49;34.13;97481.94;5019256;28;20396;-62
2021/04/23 07:41:03;;;;;;;14.70;5.82;;;;;;;12.02;35.47;97483.66;5017137;28;20590;-62
2021/04/23 07:43:28;;;;;;;15.02;5.60;;;;;;;12.33;35.98;97479.25;5016389;28;20088;-62
2021/04/23 07:45:54;;;;;;;16.63;5.63;;;;;;;12.22;35.67;97484.50;5019578;28;20079;-61
2021/04/23 07:48:21;;;;;;;11.52;5.30;;;;;;;11.59;36.41;97490.81;5007031;28;20171;-63
2021/04/23 07:50:48;;;;;;;9.32;4.63;;;;;;;13.42;33.05;97480.25;5011779;28;20049;-62
2021/04/23 07:53:13;;;;;;;12.48;4.90;;;;;;;15.49;30.47;97478.72;5013788;28;20524;-63
2021/04/23 07:55:39;;;;;;;12.18;5.05;;;;;;;13.27;33.35;97487.41;5021061;28;20136;-61
2021/04/23 07:58:05;;;;;;;13.77;5.57;;;;;;;12.86;34.37;97482.31;5030029;28;20041;-62
2021/04/23 08:00:30;;;;;;;13.52;5.35;;;;;;;12.68;34.71;97484.72;5025549;28;20041;-61
2021/04/23 08:02:56;;;;;;;12.07;5.63;;;;;;;14.59;32.42;97487.97;5019046;28;20049;-61
2021/04/23 08:05:22;;;;;;;12.98;5.88;;;;;;;14.75;30.82;97483.06;5014914;28;20060;-63
2021/04/23 08:07:48;;;;;;;15.68;5.35;;;;;;;13.96;32.53;97492.94;5019337;28;20447;-61
2021/04/23 08:10:15;;;;;;;12.63;5.20;;;;;;;14.11;34.23;97497.47;5015021;28;20049;-62
2021/04/23 08:12:41;;;;;;;11.95;5.43;;;;;;;13.06;35.03;97483.09;5018626;28;20033;-62
2021/04/23 08:15:09;;;;;;;13.48;5.28;;;;;;;13.87;33.79;97489.66;5016350;28;20038;-62
2021/04/23 08:17:35;;;;;;;9.77;5.55;;;;;;;13.29;33.43;97496.06;5018836;28;20459;-61
2021/04/23 08:20:03;;;;;;;14.82;5.05;;;;;;;12.97;33.90;97499.03;5021599;28;20129;-61
2021/04/23 08:22:28;;;;;;;11.85;4.82;;;;;;;13.04;33.94;97493.66;4998752;28;20522;-63
2021/04/23 08:24:53;;;;;;;14.70;5.00;;;;;;;13.75;32.75;97496.91;5017984;28;20079;-64
2021/04/23 08:27:19;;;;;;;10.88;4.82;;;;;;;14.50;30.95;97494.50;5010476;28;20103;-64
2021/04/23 08:29:44;;;;;;;13.18;5.05;;;;;;;13.34;32.94;97491.13;5017626;28;20128;-62
2021/04/23 08:32:10;;;;;;;8.80;4.20;;;;;;;13.86;33.03;97488.03;5014290;28;20356;-63
2021/04/23 08:34:35;;;;;;;11.18;3.97;;;;;;;15.75;29.48;97486.06;5009565;28;20046;-63
2021/04/23 08:37:00;;;;;;;12.50;4.80;;;;;;;14.29;31.76;97480.44;5014384;28;20042;-63
2021/04/23 08:39:26;;;;;;;11.07;4.60;;;;;;;15.28;30.61;97476.53;5025323;28;20483;-63
2021/04/23 08:41:51;;;;;;;11.15;4.53;;;;;;;17.59;27.16;97473.91;5025953;28;20493;-63
2021/04/23 08:44:17;;;;;;;11.95;4.47;;;;;;;16.33;28.46;97475.44;4998207;28;20069;-62
2021/04/23 08:46:42;;;;;;;12.20;5.63;;;;;;;15.32;30.72;97477.34;5020925;28;20033;-63
2021/04/23 08:49:08;;;;;;;15.05;4.80;;;;;;;14.17;31.61;97483.41;5014042;28;20038;-64
2021/04/23 08:51:35;;;;;;;11.07;3.65;;;;;;;14.51;29.47;97479.56;5020119;28;20107;-62
2021/04/23 08:54:01;;;;;;;13.63;4.25;;;;;;;15.07;29.08;97477.91;5020988;28;20045;-63
2021/04/23 08:56:27;;;;;;;9.82;3.83;;;;;;;15.18;30.58;97489.06;5016255;28;20492;-62
2021/04/23 08:58:53;;;;;;;9.43;3.38;;;;;;;15.16;31.13;97485.91;5015404;28;20046;-64
2021/04/23 09:01:19;;;;;;;13.07;3.70;;;;;;;15.56;28.68;97481.56;5021691;28;20075;-62
2021/04/23 09:03:44;;;;;;;8.50;3.10;;;;;;;14.41;29.55;97482.97;5032107;28;20128;-60
2021/04/23 09:06:17;;;;;;;14.43;4.65;;;;;;;14.36;30.08;97483.28;5014260;28;20049;-63
2021/04/23 09:08:51;;;;;;;10.23;3.30;;;;;;;15.60;28.31;97474.09;5017884;28;20125;-61
2021/04/23 09:11:21;;;;;;;8.85;3.58;;;;;;;15.02;29.97;97477.47;5012580;28;20049;-61
2021/04/23 09:14:02;;;;;;;8.85;3.15;;;;;;;14.82;28.16;97474.06;5021924;28;20049;-61
2021/04/23 09:17:02;;;;;;;9.13;3.28;;;;;;;16.42;32.07;97470.34;5016059;28;20108;-63
2021/04/23 09:19:28;;;;;;;;;;;;;;;16.43;32.82;97474.72;5013710;28;20053;-61
2021/04/23 09:21:57;;;;;;;11.52;4.88;;;;;;;17.41;31.14;97471.13;5015758;28;20360;-64
2021/04/23 09:24:31;;;;;;;12.18;4.97;;;;;;;18.39;30.28;97477.50;5018088;28;20971;-63
2021/04/23 09:27:06;;;;;;;12.20;5.15;;;;;;;18.42;29.82;97471.13;5023729;28;20143;-63
2021/04/23 09:29:34;;;;;;;8.82;3.05;;;;;;;17.53;25.66;97472.75;5023323;28;20124;-62
2021/04/23 09:32:20;;;;;;;11.07;3.47;;;;;;;15.21;30.73;97463.44;5023176;28;20400;-62
2021/04/23 09:34:54;;;;;;;10.85;4.68;;;;;;;15.34;35.21;97480.56;5019003;28;20110;-62
2021/04/23 09:37:23;;;;;;;12.32;5.45;;;;;;;16.44;33.73;97477.09;5014617;28;20072;-62
2021/04/23 09:39:51;;;;;;;14.68;6.03;;;;;;;18.14;29.54;97475.53;5004294;28;20103;-62
2021/04/23 09:42:17;;;;;;;11.73;4.60;;;;;;;17.35;29.28;97470.72;5015230;28;20128;-63
2021/04/23 09:44:45;;;;;;;14.27;4.70;;;;;;;15.97;30.38;97478.78;5020129;28;20041;-62
2021/04/23 09:47:17;;;;;;;16.23;4.43;;;;;;;17.00;32.26;97471.44;5022955;28;20057;-61
2021/04/23 09:49:58;;;;;;;13.57;4.20;;;;;;;16.59;28.84;97477.97;5013296;28;20045;-62
2021/04/23 09:52:26;;;;;;;10.60;4.43;;;;;;;17.75;25.12;97470.78;5023422;28;20611;-61
2021/04/23 09:54:57;;;;;;;9.05;3.20;;;;;;;15.94;27.57;97460.19;5021621;28;20052;-62
2021/04/23 09:57:32;;;;;;;9.02;3.47;;;;;;;15.70;25.63;97461.56;5018450;28;20060;-62
2021/04/23 10:00:00;;;;;;;8.80;3.17;;;;;;;15.32;27.07;97466.31;5024665;28;20083;-61
2021/04/23 10:02:28;;;;;;;7.60;3.53;;;;;;;15.49;27.40;97456.63;5009563;28;20046;-61
2021/04/23 10:04:54;;;;;;;7.80;3.17;;;;;;;16.56;27.51;97456.59;5011180;28;20057;-61
2021/04/23 10:07:23;;;;;;;8.93;3.13;;;;;;;16.68;24.08;97461.00;5019912;28;20037;-61
2021/04/23 10:10:10;;;;;;;6.97;3.20;;;;;;;16.91;23.49;97451.66;5027313;28;20560;-62
2021/04/23 10:12:39;;;;;;;8.75;3.28;;;;;;;15.85;25.90;97466.03;5029560;28;20037;-62
2021/04/23 10:15:07;;;;;;;8.07;3.47;;;;;;;16.43;26.54;97464.44;5018474;28;20095;-62
2021/04/23 10:17:33;;;;;;;6.82;3.20;;;;;;;16.54;25.13;97463.72;5014830;28;20038;-63
2021/04/23 10:19:59;;;;;;;12.95;3.30;;;;;;;16.70;25.62;97453.13;5025667;28;20048;-63
2021/04/23 10:22:25;;;;;;;9.32;4.57;;;;;;;16.25;26.68;97452.50;5031812;28;20041;-64
2021/04/23 10:24:52;;;;;;;11.50;4.60;;;;;;;16.78;29.16;97460.28;5020909;28;20121;-60
2021/04/23 10:27:19;;;;;;;10.55;4.43;;;;;;;17.08;30.54;97455.66;5015954;28;20037;-62
2021/04/23 10:29:48;;;;;;;19.05;4.53;;;;;;;17.84;27.97;97453.75;5022941;28;20045;-61
2021/04/23 10:32:14;;;;;;;9.00;3.92;;;;;;;19.25;25.12;97452.97;5017119;28;20046;-62
2021/04/23 10:34:41;;;;;;;9.98;3.58;;;;;;;20.61;21.42;97439.13;5023263;28;20388;-60
2021/04/23 10:37:07;;;;;;;9.43;3.95;;;;;;;21.13;20.09;97436.06;5017198;28;20041;-63
2021/04/23 10:39:44;;;;;;;8.05;3.88;;;;;;;22.10;18.99;97436.59;5022314;28;20484;-62
2021/04/23 10:42:40;;;;;;;9.95;3.28;;;;;;;22.51;18.12;97438.25;5016403;28;20480;-63
2021/04/23 10:45:17;;;;;;;6.65;3.67;;;;;;;22.65;18.62;97431.59;5016099;28;20413;-61
2021/04/23 10:47:43;;;;;;;9.88;3.63;;;;;;;21.86;20.59;97433.00;5012705;28;20135;-62
2021/04/23 10:50:11;;;;;;;11.18;3.33;;;;;;;22.22;18.80;97422.03;5016023;28;20134;-61
2021/04/23 10:53:06;;;;;;;10.07;3.88;;;;;;;18.75;22.32;97433.78;5021548;28;20052;-63
2021/04/23 10:55:43;;;;;;;8.63;3.75;;;;;;;15.86;26.72;97433.69;5012098;28;20103;-61
2021/04/23 10:58:12;;;;;;;9.65;4.03;;;;;;;15.57;27.23;97430.66;5016478;28;20044;-63
2021/04/23 11:00:48;;;;;;;8.93;3.53;;;;;;;16.02;26.14;97427.88;5020896;28;20056;-61
2021/04/23 11:03:19;;;;;;;10.90;3.60;;;;;;;15.68;26.78;97426.03;5007860;28;20037;-61
2021/04/23 11:05:45;;;;;;;11.93;3.47;;;;;;;16.01;26.27;97432.63;5024405;28;20460;-62
2021/04/23 11:08:11;;;;;;;7.57;3.30;;;;;;;15.56;26.52;97431.06;5016824;28;20073;-63
2021/04/23 11:13:34;;;;;;;7.10;3.35;;;;;;;16.13;25.38;97414.13;5014494;28;20065;-62
2021/04/23 11:16:17;;;;;;;9.90;3.22;;;;;;;17.51;23.72;97416.97;5017924;28;20037;-62
2021/04/23 11:18:54;;;;;;;7.05;3.47;;;;;;;16.48;25.17;97419.06;5014538;28;20555;-62
2021/04/23 11:21:35;;;;;;;8.95;3.53;;;;;;;16.82;24.96;97418.78;5011852;28;20045;-62
2021/04/23 11:24:19;;;;;;;8.50;3.58;;;;;;;16.17;27.13;97421.25;5007088;28;20037;-63
2021/04/23 11:26:57;;;;;;;8.82;3.33;;;;;;;17.20;25.04;97413.78;4999227;28;20057;-63
2021/04/23 11:29:33;;;;;;;9.25;3.88;;;;;;;16.63;24.07;97415.16;4992295;28;20447;-61
2021/04/23 11:32:10;;;;;;;9.35;3.40;;;;;;;16.09;24.06;97414.09;4996133;28;20110;-63
2021/04/23 11:34:38;;;;;;;11.07;3.92;;;;;;;16.73;22.66;97405.31;4995147;28;20137;-62
2021/04/23 11:37:14;;;;;;;9.23;3.08;;;;;;;16.69;23.00;97406.47;4996869;28;20400;-63
2021/04/23 11:39:43;;;;;;;8.98;3.97;;;;;;;16.17;24.51;97403.88;5000288;28;20050;-62